Home > Products > Valid Products > TAF

000
FTUS43 KGRB 290500
TAFGRB
TAF
KGRB 290530Z 2906/3006 16006KT 4SM BR BKN012 OVC100
      TEMPO 2906/2907 4SM -PLSN BR
     FM291600 18009KT 5SM HZ BKN015
     FM292000 21007KT P6SM SCT015 SCT140=



000
FTUS43 KGRB 290500
TAFGRB
TAF
KGRB 290530Z 2906/3006 16006KT 4SM BR BKN012 OVC100
      TEMPO 2906/2907 4SM -PLSN BR
     FM291600 18009KT 5SM HZ BKN015
     FM292000 21007KT P6SM SCT015 SCT140=



000
FTUS43 KGRB 290300 AAA
TAFGRB
TAF AMD
KGRB 290333Z 2904/2924 16004KT P6SM SCT017 OVC050
      TEMPO 2904/2906 4SM -PLSN BR OVC017
     FM290600 16004KT 3SM BR BKN015 OVC100
      TEMPO 2906/2910 -FZDZ
     FM291600 18008KT 5SM HZ BKN020
     FM292000 20008KT P6SM SCT020=



000
FTUS43 KGRB 290300 AAA
TAFGRB
TAF AMD
KGRB 290333Z 2904/2924 16004KT P6SM SCT017 OVC050
      TEMPO 2904/2906 4SM -PLSN BR OVC017
     FM290600 16004KT 3SM BR BKN015 OVC100
      TEMPO 2906/2910 -FZDZ
     FM291600 18008KT 5SM HZ BKN020
     FM292000 20008KT P6SM SCT020=



000
FTUS43 KGRB 290300 AAA
TAFGRB
TAF AMD
KGRB 290333Z 2904/2924 16004KT P6SM SCT017 OVC050
      TEMPO 2904/2906 4SM -PLSN BR OVC017
     FM290600 16004KT 3SM BR BKN015 OVC100
      TEMPO 2906/2910 -FZDZ
     FM291600 18008KT 5SM HZ BKN020
     FM292000 20008KT P6SM SCT020=



000
FTUS43 KGRB 290300 AAA
TAFGRB
TAF AMD
KGRB 290333Z 2904/2924 16004KT P6SM SCT017 OVC050
      TEMPO 2904/2906 4SM -PLSN BR OVC017
     FM290600 16004KT 3SM BR BKN015 OVC100
      TEMPO 2906/2910 -FZDZ
     FM291600 18008KT 5SM HZ BKN020
     FM292000 20008KT P6SM SCT020=



000
FTUS43 KGRB 282300 RRA
TAFGRB
TAF
KGRB 282343Z 2900/2924 16004KT 6SM -SN BR SCT020 OVC035
      TEMPO 2900/2901 2SM -SN OVC020
     FM290200 16004KT P6SM SCT020 OVC050
      TEMPO 2902/2906 5SM -PLSN BR BKN020
     FM290600 16004KT 3SM BR BKN020 OVC100
      TEMPO 2906/2910 -FZDZ
     FM291600 18008KT 5SM HZ BKN020
     FM292000 20008KT P6SM SCT020=



000
FTUS43 KGRB 282300 RRA
TAFGRB
TAF
KGRB 282343Z 2900/2924 16004KT 6SM -SN BR SCT020 OVC035
      TEMPO 2900/2901 2SM -SN OVC020
     FM290200 16004KT P6SM SCT020 OVC050
      TEMPO 2902/2906 5SM -PLSN BR BKN020
     FM290600 16004KT 3SM BR BKN020 OVC100
      TEMPO 2906/2910 -FZDZ
     FM291600 18008KT 5SM HZ BKN020
     FM292000 20008KT P6SM SCT020=



000
FTUS43 KGRB 282100 AAA
TAFGRB
TAF AMD
KGRB 282102Z 2821/2918 16008KT 6SM -SN BR SCT018 OVC050
      TEMPO 2821/2822 3/4SM -SN OVC018
     FM282200 15006KT 6SM -SN BR SCT017 OVC030
      TEMPO 2822/2902 1 1/2SM -FZDZSN OVC017
     FM290200 17005KT 5SM -FZDZSN BR OVC015
     FM290500 16004KT 3SM BR OVC012
     FM290800 16004KT 2SM BR OVC009
     FM291600 17007KT 3SM BR BKN010 BKN040=



000
FTUS43 KGRB 282100 AAA
TAFGRB
TAF AMD
KGRB 282102Z 2821/2918 16008KT 6SM -SN BR SCT018 OVC050
      TEMPO 2821/2822 3/4SM -SN OVC018
     FM282200 15006KT 6SM -SN BR SCT017 OVC030
      TEMPO 2822/2902 1 1/2SM -FZDZSN OVC017
     FM290200 17005KT 5SM -FZDZSN BR OVC015
     FM290500 16004KT 3SM BR OVC012
     FM290800 16004KT 2SM BR OVC009
     FM291600 17007KT 3SM BR BKN010 BKN040=



000
FTUS43 KGRB 281700
TAFGRB
TAF
KGRB 281740Z 2818/2918 16008KT 6SM -SN BR SCT025 OVC050
      TEMPO 2818/2822 1 1/2SM -SN OVC025
     FM282200 15006KT 6SM -SN BR SCT017 OVC030
      TEMPO 2822/2902 1 1/2SM -FZDZSN OVC017
     FM290200 17005KT 5SM -FZDZSN BR OVC015
     FM290500 16004KT 3SM BR OVC012
     FM290800 16004KT 2SM BR OVC009
     FM291600 17007KT 3SM BR BKN010 BKN040=



000
FTUS43 KGRB 281700
TAFGRB
TAF
KGRB 281740Z 2818/2918 16008KT 6SM -SN BR SCT025 OVC050
      TEMPO 2818/2822 1 1/2SM -SN OVC025
     FM282200 15006KT 6SM -SN BR SCT017 OVC030
      TEMPO 2822/2902 1 1/2SM -FZDZSN OVC017
     FM290200 17005KT 5SM -FZDZSN BR OVC015
     FM290500 16004KT 3SM BR OVC012
     FM290800 16004KT 2SM BR OVC009
     FM291600 17007KT 3SM BR BKN010 BKN040=



000
FTUS43 KGRB 281300 AAA
TAFGRB
TAF AMD
KGRB 281332Z 2814/2912 18006KT 5SM -SN BR SCT025 OVC050
      TEMPO 2814/2818 1SM -SN OVC025
     FM281800 18007KT 2SM -SN BR OVC015
     FM290000 19005KT 3SM -FZDZSN BR OVC012
     FM290500 16004KT 4SM BR OVC009=



000
FTUS43 KGRB 281300 AAA
TAFGRB
TAF AMD
KGRB 281332Z 2814/2912 18006KT 5SM -SN BR SCT025 OVC050
      TEMPO 2814/2818 1SM -SN OVC025
     FM281800 18007KT 2SM -SN BR OVC015
     FM290000 19005KT 3SM -FZDZSN BR OVC012
     FM290500 16004KT 4SM BR OVC009=



000
FTUS43 KGRB 281100
TAFGRB
TAF
KGRB 281140Z 2812/2912 19005KT P6SM -SN OVC070
     FM281500 18006KT 5SM -SN BR BKN030 OVC050
     FM281800 18007KT 2SM -SN BR OVC015
     FM290000 19005KT 3SM -FZDZSN BR OVC012
     FM290500 16004KT 4SM BR OVC009=



000
FTUS43 KGRB 281100
TAFGRB
TAF
KGRB 281140Z 2812/2912 19005KT P6SM -SN OVC070
     FM281500 18006KT 5SM -SN BR BKN030 OVC050
     FM281800 18007KT 2SM -SN BR OVC015
     FM290000 19005KT 3SM -FZDZSN BR OVC012
     FM290500 16004KT 4SM BR OVC009=



000
FTUS43 KGRB 280500
TAFGRB
TAF
KGRB 280538Z 2806/2906 VRB03KT P6SM BKN250
     FM280900 21003KT P6SM -SN SCT080 BKN120
     FM281300 18007KT 5SM -SN BR BKN030 OVC070
     FM281600 18007KT 2SM -SN BR OVC015
     FM290000 19005KT 5SM BR OVC010=



000
FTUS43 KGRB 280500
TAFGRB
TAF
KGRB 280538Z 2806/2906 VRB03KT P6SM BKN250
     FM280900 21003KT P6SM -SN SCT080 BKN120
     FM281300 18007KT 5SM -SN BR BKN030 OVC070
     FM281600 18007KT 2SM -SN BR OVC015
     FM290000 19005KT 5SM BR OVC010=



000
FTUS43 KGRB 272300
TAFGRB
TAF
KGRB 272335Z 2800/2824 27003KT P6SM SKC
     FM280400 VRB03KT P6SM BKN250
     FM280900 21003KT P6SM SCT080 BKN120
     FM281300 18007KT 5SM -SN BR BKN030 OVC070
     FM281600 18007KT 2SM -SN BR OVC015=



000
FTUS43 KGRB 272300
TAFGRB
TAF
KGRB 272335Z 2800/2824 27003KT P6SM SKC
     FM280400 VRB03KT P6SM BKN250
     FM280900 21003KT P6SM SCT080 BKN120
     FM281300 18007KT 5SM -SN BR BKN030 OVC070
     FM281600 18007KT 2SM -SN BR OVC015=



000
FTUS43 KGRB 271700
TAFGRB
TAF
KGRB 271736Z 2718/2818 33008G16KT P6SM SCT050
     FM272300 29003KT P6SM SCT250
     FM280600 VRB03KT P6SM OVC080
     FM281300 18007KT 5SM -SN BR OVC030
     FM281600 18007KT 2SM -SN BR OVC015=



000
FTUS43 KGRB 271700
TAFGRB
TAF
KGRB 271736Z 2718/2818 33008G16KT P6SM SCT050
     FM272300 29003KT P6SM SCT250
     FM280600 VRB03KT P6SM OVC080
     FM281300 18007KT 5SM -SN BR OVC030
     FM281600 18007KT 2SM -SN BR OVC015=



000
FTUS43 KGRB 271100 RRA
TAFGRB
TAF
KGRB 271143Z 2712/2812 34012KT P6SM -SHSN SCT025 BKN040
      TEMPO 2712/2715 5SM -SHSN BKN025
     FM271900 32010G15KT P6SM SCT050
     FM272300 29003KT P6SM SKC=



000
FTUS43 KGRB 271000 AAA
TAFGRB
TAF AMD
KGRB 271011Z 2710/2806 32010KT P6SM SCT020 BKN035
      TEMPO 2710/2712 5SM -SHSN BKN020
     FM271200 32012G21KT P6SM -SHSN SCT025 BKN050
     FM271900 32009KT P6SM SCT050
     FM272300 29003KT P6SM SKC=



000
FTUS43 KGRB 271000 AAA
TAFGRB
TAF AMD
KGRB 271011Z 2710/2806 32010KT P6SM SCT020 BKN035
      TEMPO 2710/2712 5SM -SHSN BKN020
     FM271200 32012G21KT P6SM -SHSN SCT025 BKN050
     FM271900 32009KT P6SM SCT050
     FM272300 29003KT P6SM SKC=



000
FTUS43 KGRB 271000 AAA
TAFGRB
TAF AMD
KGRB 271011Z 2710/2806 32010KT P6SM SCT020 BKN035
      TEMPO 2710/2712 5SM -SHSN BKN020
     FM271200 32012G21KT P6SM -SHSN SCT025 BKN050
     FM271900 32009KT P6SM SCT050
     FM272300 29003KT P6SM SKC=



000
FTUS43 KGRB 271000 AAA
TAFGRB
TAF AMD
KGRB 271011Z 2710/2806 32010KT P6SM SCT020 BKN035
      TEMPO 2710/2712 5SM -SHSN BKN020
     FM271200 32012G21KT P6SM -SHSN SCT025 BKN050
     FM271900 32009KT P6SM SCT050
     FM272300 29003KT P6SM SKC=



000
FTUS43 KGRB 270500
TAFGRB
TAF
KGRB 270536Z 2706/2806 30008KT 5SM -SN BR SCT025 BKN040
      TEMPO 2706/2708 2SM -SN BR BKN022
     FM270900 32010G15KT 6SM -SN SCT020 BKN035
     FM271200 32012G21KT P6SM -SN SCT025 BKN050
     FM271900 32009KT P6SM SCT050
     FM272300 29003KT P6SM SKC=



000
FTUS43 KGRB 270500
TAFGRB
TAF
KGRB 270536Z 2706/2806 30008KT 5SM -SN BR SCT025 BKN040
      TEMPO 2706/2708 2SM -SN BR BKN022
     FM270900 32010G15KT 6SM -SN SCT020 BKN035
     FM271200 32012G21KT P6SM -SN SCT025 BKN050
     FM271900 32009KT P6SM SCT050
     FM272300 29003KT P6SM SKC=



000
FTUS43 KGRB 262300
TAFGRB
TAF
KGRB 262330Z 2700/2724 32004KT 5SM BR SCT012 BKN070
      TEMPO 2700/2704 BKN012
     FM270400 32008KT 6SM -SN SCT014 BKN025
     FM270900 32010G15KT 2SM -SHSN BKN014
     FM271200 32012G21KT P6SM -SN SCT025 BKN050
     FM271900 32009KT P6SM SCT050=



000
FTUS43 KGRB 262300
TAFGRB
TAF
KGRB 262330Z 2700/2724 32004KT 5SM BR SCT012 BKN070
      TEMPO 2700/2704 BKN012
     FM270400 32008KT 6SM -SN SCT014 BKN025
     FM270900 32010G15KT 2SM -SHSN BKN014
     FM271200 32012G21KT P6SM -SN SCT025 BKN050
     FM271900 32009KT P6SM SCT050=



000
FTUS43 KGRB 261700 RRA
TAFGRB
TAF
KGRB 261741Z 2618/2718 VRB03KT 4SM BR BKN012 OVC070
      TEMPO 2618/2622 6SM BR SCT012
     FM270500 29004KT 6SM BR BKN014 OVC025
     FM270900 32008KT 6SM -SN SCT014 BKN025 PROB30 2709/2714 2SM
      -SHSN BKN014
     FM271500 32015G23KT P6SM SCT025 BKN050=



000
FTUS43 KGRB 261700 RRA
TAFGRB
TAF
KGRB 261741Z 2618/2718 VRB03KT 4SM BR BKN012 OVC070
      TEMPO 2618/2622 6SM BR SCT012
     FM270500 29004KT 6SM BR BKN014 OVC025
     FM270900 32008KT 6SM -SN SCT014 BKN025 PROB30 2709/2714 2SM
      -SHSN BKN014
     FM271500 32015G23KT P6SM SCT025 BKN050=



000
FTUS43 KGRB 261200 AAA
TAFGRB
TAF AMD
KGRB 261238Z 2613/2712 VRB03KT 6SM BR SCT015 SCT060
      TEMPO 2613/2617 BKN015
     FM261700 07003KT P6SM SCT025 BKN070
     FM270500 31005KT P6SM SCT014 BKN025=



000
FTUS43 KGRB 261200 AAA
TAFGRB
TAF AMD
KGRB 261238Z 2613/2712 VRB03KT 6SM BR SCT015 SCT060
      TEMPO 2613/2617 BKN015
     FM261700 07003KT P6SM SCT025 BKN070
     FM270500 31005KT P6SM SCT014 BKN025=



000
FTUS43 KGRB 261100
TAFGRB
TAF
KGRB 261132Z 2612/2712 15003KT 6SM BR SCT020 SCT060
      TEMPO 2615/2617 BKN020
     FM261700 07003KT P6SM SCT025 BKN070
     FM270500 31005KT P6SM SCT014 BKN025=



000
FTUS43 KGRB 261100
TAFGRB
TAF
KGRB 261132Z 2612/2712 15003KT 6SM BR SCT020 SCT060
      TEMPO 2615/2617 BKN020
     FM261700 07003KT P6SM SCT025 BKN070
     FM270500 31005KT P6SM SCT014 BKN025=



000
FTUS43 KGRB 261000 AAB
TAFGRB
TAF AMD
KGRB 261012Z 2610/2706 00000KT 6SM BR BKN015
     FM261200 00000KT P6SM FEW020 BKN050
     FM261600 07003KT 6SM HZ SCT015 BKN035=



000
FTUS43 KGRB 261000 AAB
TAFGRB
TAF AMD
KGRB 261012Z 2610/2706 00000KT 6SM BR BKN015
     FM261200 00000KT P6SM FEW020 BKN050
     FM261600 07003KT 6SM HZ SCT015 BKN035=



    US Dept of Commerce
    National Oceanic and Atmospheric Administration
    National Weather Service
    1325 East West Highway
    Silver Spring, MD 20910
    Page Author: NWS Internet Services Team
Disclaimer
Information Quality
Credits
Glossary
Privacy Policy
Freedom of Information Act (FOIA)
About Us
Career Opportunities